Terminal Aerodrome Forecast
Issued by NWS

Home | Current Version | Previous Version | Text Only | Print | Product List | Glossary On
Versions: 1 2 3 4 5 6 7 8 9 10 11 12 13 14 15 16 17 18 19 20 21 22 23 24 25 26 27
000
FTUS46 KEKA 012320
TAFCEC
TAF
KCEC 012320Z 0200/0224 18006KT P6SM VCSH SCT025 BKN035 OVC050
     FM020200 19006KT 6SM BR VCSH BKN035 OVC040
      TEMPO 0202/0206 5SM -SHRA BR BKN025
     FM020800 15010KT 4SM -SHRA BR OVC025
     FM021200 16015KT 2SM RA SCT007 OVC015
      TEMPO 0212/0216 1SM +TSRA OVC030CB
     FM021700 17010KT 2SM RA BR BKN007 OVC015=

USA.gov is the U.S. government's official web portal to all federal, state and local government web resources and services.